createdAt,value
2023-05-24T00:01:11.805Z,100560.84
2023-05-24T00:03:39.519Z,100560.75
2023-05-24T00:06:07.339Z,100560.66
2023-05-24T00:08:35.052Z,100561.78
2023-05-24T00:11:03.942Z,100558.00
2023-05-24T00:13:31.443Z,100572.53
2023-05-24T00:15:58.927Z,100565.97
2023-05-24T00:18:26.453Z,100567.50
2023-05-24T00:20:57.142Z,100561.50
2023-05-24T00:23:25.401Z,100558.13
2023-05-24T00:25:52.994Z,100554.47
2023-05-24T00:28:22.259Z,100548.00
2023-05-24T00:30:51.083Z,100553.13
2023-05-24T00:33:23.229Z,100555.53
2023-05-24T00:35:54.371Z,100545.50
2023-05-24T00:38:21.872Z,100549.38
2023-05-24T00:40:49.835Z,100543.56
2023-05-24T00:43:17.550Z,100545.53
2023-05-24T00:45:46.451Z,100544.66
2023-05-24T00:48:15.194Z,100548.72
2023-05-24T00:50:42.949Z,100542.06
2023-05-24T00:53:10.923Z,100540.31
2023-05-24T00:55:38.880Z,100547.03
2023-05-24T00:58:06.425Z,100545.38
2023-05-24T01:00:34.046Z,100542.72
2023-05-24T01:03:03.365Z,100547.97
2023-05-24T01:05:30.926Z,100534.28
2023-05-24T01:08:05.116Z,100532.00
2023-05-24T01:10:41.476Z,100527.88
2023-05-24T01:13:21.797Z,100530.63
2023-05-24T01:15:55.285Z,100533.44
2023-05-24T01:18:30.142Z,100525.09
2023-05-24T01:21:07.698Z,100532.19
2023-05-24T01:23:45.857Z,100525.31
2023-05-24T01:26:20.983Z,100529.44
2023-05-24T01:28:51.898Z,100528.81
2023-05-24T01:31:21.183Z,100524.41
2023-05-24T01:33:48.837Z,100524.53
2023-05-24T01:36:16.452Z,100529.44
2023-05-24T01:38:44.886Z,100526.84
2023-05-24T01:41:24.644Z,100530.03
2023-05-24T01:44:01.406Z,100528.19
2023-05-24T01:46:37.155Z,100526.97
2023-05-24T01:49:13.867Z,100512.38
2023-05-24T01:51:49.006Z,100508.00
2023-05-24T01:54:21.238Z,100502.41
2023-05-24T01:56:49.981Z,100509.50
2023-05-24T01:59:19.956Z,100505.50
2023-05-24T02:01:48.225Z,100504.63
2023-05-24T02:04:16.189Z,100505.03
2023-05-24T02:06:43.691Z,100496.34
2023-05-24T02:09:11.314Z,100502.28
2023-05-24T02:11:38.837Z,100496.53
2023-05-24T02:14:06.302Z,100499.47
2023-05-24T02:16:42.383Z,100501.63
2023-05-24T02:19:09.999Z,100502.47
2023-05-24T02:21:37.504Z,100506.56
2023-05-24T02:24:06.807Z,100506.84
2023-05-24T02:26:34.424Z,100505.78
2023-05-24T02:29:01.953Z,100503.28
2023-05-24T02:31:29.562Z,100502.38
2023-05-24T02:33:59.356Z,100504.47
2023-05-24T02:36:27.489Z,100502.03
2023-05-24T02:38:55.062Z,100497.88
2023-05-24T02:41:22.783Z,100500.66
2023-05-24T02:43:50.337Z,100492.25
2023-05-24T02:46:17.879Z,100489.06
2023-05-24T02:48:45.384Z,100495.16
2023-05-24T02:51:14.210Z,100491.41
2023-05-24T02:53:43.479Z,100486.44
2023-05-24T02:56:11.327Z,100487.06
2023-05-24T02:58:41.025Z,100489.72
2023-05-24T03:01:08.763Z,100488.88
2023-05-24T03:03:36.483Z,100493.06
2023-05-24T03:06:04.335Z,100498.06
2023-05-24T03:08:33.180Z,100504.34
2023-05-24T03:11:00.806Z,100497.00
2023-05-24T03:13:28.258Z,100498.91
2023-05-24T03:15:55.901Z,100497.44
2023-05-24T03:18:23.513Z,100500.22
2023-05-24T03:20:51.189Z,100502.63
2023-05-24T03:23:18.664Z,100501.25
2023-05-24T03:25:47.513Z,100501.81
2023-05-24T03:28:15.728Z,100502.59
2023-05-24T03:30:43.420Z,100503.09
2023-05-24T03:33:11.188Z,100493.66
2023-05-24T03:35:38.650Z,100495.81
2023-05-24T03:38:06.281Z,100501.34
2023-05-24T03:40:34.484Z,100501.41
2023-05-24T03:43:04.601Z,100498.41
2023-05-24T03:45:39.428Z,100496.59
2023-05-24T03:48:07.648Z,100506.31
2023-05-24T03:50:35.571Z,100509.06
2023-05-24T03:53:03.215Z,100524.47
2023-05-24T03:55:30.697Z,100521.78
2023-05-24T03:57:58.225Z,100525.94
2023-05-24T04:00:27.093Z,100527.34
2023-05-24T04:02:55.875Z,100533.75
2023-05-24T04:05:26.828Z,100523.38
2023-05-24T04:07:54.322Z,100521.97
2023-05-24T04:10:21.838Z,100538.13
2023-05-24T04:12:49.364Z,100539.22
2023-05-24T04:15:16.969Z,100539.25
2023-05-24T04:17:47.228Z,100540.28
2023-05-24T04:20:15.134Z,100528.19
2023-05-24T04:22:42.651Z,100536.50
2023-05-24T04:25:10.830Z,100530.06
2023-05-24T04:27:38.359Z,100525.81
2023-05-24T04:30:07.633Z,100533.53
2023-05-24T04:32:35.163Z,100533.81
2023-05-24T04:35:04.314Z,100531.06
2023-05-24T04:37:31.815Z,100536.56
2023-05-24T04:39:59.288Z,100536.72
2023-05-24T04:42:27.276Z,100534.38
2023-05-24T04:44:54.827Z,100544.22
2023-05-24T04:47:22.392Z,100541.09
2023-05-24T04:49:49.978Z,100548.16
2023-05-24T04:52:19.032Z,100550.69
2023-05-24T04:54:46.567Z,100553.50
2023-05-24T04:57:14.228Z,100552.06
2023-05-24T04:59:41.722Z,100545.41
2023-05-24T05:02:09.234Z,100556.97
2023-05-24T05:04:36.805Z,100554.88
2023-05-24T05:07:04.712Z,100551.88
2023-05-24T05:09:33.829Z,100554.56
2023-05-24T05:12:01.348Z,100552.88
2023-05-24T05:14:29.032Z,100555.34
2023-05-24T05:16:56.635Z,100543.72
2023-05-24T05:19:24.248Z,100542.28
2023-05-24T05:21:52.047Z,100547.38
2023-05-24T05:24:19.756Z,100555.22
2023-05-24T05:26:48.552Z,100569.16
2023-05-24T05:29:16.009Z,100556.31
2023-05-24T05:31:43.773Z,100559.75
2023-05-24T05:34:11.257Z,100561.00
2023-05-24T05:36:40.738Z,100561.34
2023-05-24T05:39:10.352Z,100556.53
2023-05-24T05:41:38.848Z,100548.91
2023-05-24T05:44:07.741Z,100551.22
2023-05-24T05:46:35.300Z,100542.94
2023-05-24T05:49:02.817Z,100539.63
2023-05-24T05:51:30.396Z,100540.09
2023-05-24T05:53:57.919Z,100535.13
2023-05-24T05:56:25.371Z,100544.31
2023-05-24T05:58:52.828Z,100554.00
2023-05-24T06:01:21.631Z,100563.75
2023-05-24T06:03:49.229Z,100555.09
2023-05-24T06:06:16.882Z,100552.56
2023-05-24T06:08:44.413Z,100552.63
2023-05-24T06:11:11.913Z,100554.91
2023-05-24T06:13:39.411Z,100551.28
2023-05-24T06:16:08.453Z,100550.16
2023-05-24T06:18:37.624Z,100550.94
2023-05-24T06:21:05.495Z,100546.88
2023-05-24T06:23:33.157Z,100555.28
2023-05-24T06:26:01.488Z,100556.44
2023-05-24T06:28:29.033Z,100556.13
2023-05-24T06:30:56.751Z,100553.75
2023-05-24T06:33:24.315Z,100563.56
2023-05-24T06:35:53.181Z,100565.50
2023-05-24T06:38:20.867Z,100565.81
2023-05-24T06:40:48.476Z,100571.28
2023-05-24T06:43:16.149Z,100576.06
2023-05-24T06:45:43.745Z,100569.69
2023-05-24T06:48:11.313Z,100572.03
2023-05-24T06:50:41.603Z,100569.03
2023-05-24T06:53:11.496Z,100576.44
2023-05-24T06:55:38.996Z,100569.03
2023-05-24T06:58:07.010Z,100568.16
2023-05-24T07:00:34.551Z,100562.03
2023-05-24T07:03:02.157Z,100563.59
2023-05-24T07:05:29.779Z,100562.03
2023-05-24T07:07:57.372Z,100558.16
2023-05-24T07:10:26.278Z,100559.09
2023-05-24T07:12:53.810Z,100556.03
2023-05-24T07:15:21.356Z,100561.47
2023-05-24T07:17:49.429Z,100556.00
2023-05-24T07:20:17.136Z,100570.78
2023-05-24T07:22:44.688Z,100553.78
2023-05-24T07:25:12.230Z,100563.38
2023-05-24T07:27:41.085Z,100557.78
2023-05-24T07:30:23.814Z,100571.81
2023-05-24T07:32:57.079Z,100568.69
2023-05-24T07:35:24.836Z,100567.38
2023-05-24T07:37:52.473Z,100570.50
2023-05-24T07:40:20.427Z,100568.47
2023-05-24T07:42:49.222Z,100571.59
2023-05-24T07:45:16.802Z,100565.81
2023-05-24T07:47:44.340Z,100572.69
2023-05-24T07:50:12.666Z,100576.25
2023-05-24T07:52:40.179Z,100573.38
2023-05-24T07:55:08.247Z,100570.19
2023-05-24T07:57:35.832Z,100567.88
2023-05-24T08:00:12.570Z,100575.63
2023-05-24T08:02:40.174Z,100568.00
2023-05-24T08:05:10.040Z,100571.53
2023-05-24T08:07:37.550Z,100569.13
2023-05-24T08:10:05.742Z,100568.31
2023-05-24T08:12:33.278Z,100568.69
2023-05-24T08:15:00.879Z,100561.38
2023-05-24T08:17:30.812Z,100565.25
2023-05-24T08:19:58.444Z,100560.25
2023-05-24T08:22:26.045Z,100566.25
2023-05-24T08:24:53.684Z,100561.47
2023-05-24T08:27:22.510Z,100553.31
2023-05-24T08:29:50.038Z,100565.91
2023-05-24T08:32:17.709Z,100568.22
2023-05-24T08:34:46.548Z,100564.84
2023-05-24T08:37:16.286Z,100561.28
2023-05-24T08:39:43.898Z,100567.56
2023-05-24T08:42:11.566Z,100572.00
2023-05-24T08:44:42.995Z,100564.88
2023-05-24T08:47:11.531Z,100574.06
2023-05-24T08:49:39.277Z,100566.63
2023-05-24T08:52:08.457Z,100568.19
2023-05-24T08:54:37.391Z,100570.78
2023-05-24T08:57:06.503Z,100569.00
2023-05-24T08:59:34.297Z,100573.78
2023-05-24T09:02:03.487Z,100564.72
2023-05-24T09:04:31.853Z,100573.06
2023-05-24T09:06:59.725Z,100571.56
2023-05-24T09:09:29.604Z,100570.22
2023-05-24T09:12:02.935Z,100573.72
2023-05-24T09:14:30.883Z,100566.31
2023-05-24T09:16:59.099Z,100569.94
2023-05-24T09:19:27.875Z,100570.88
2023-05-24T09:21:57.337Z,100563.63
2023-05-24T09:24:25.031Z,100558.09
2023-05-24T09:26:53.921Z,100553.59
2023-05-24T09:29:24.444Z,100564.50
2023-05-24T09:31:56.858Z,100564.50
2023-05-24T09:34:24.464Z,100555.75
2023-05-24T09:36:53.844Z,100564.59
2023-05-24T09:39:22.239Z,100556.84
2023-05-24T09:41:57.276Z,100554.47
2023-05-24T09:44:26.712Z,100547.94
2023-05-24T09:46:54.325Z,100547.94
2023-05-24T09:49:22.490Z,100554.03
2023-05-24T09:51:50.060Z,100561.59
2023-05-24T09:54:18.613Z,100559.03
2023-05-24T09:56:47.386Z,100548.75
2023-05-24T09:59:16.595Z,100550.81
2023-05-24T10:01:44.396Z,100559.13
2023-05-24T10:04:12.549Z,100563.78
2023-05-24T10:06:42.977Z,100555.16
2023-05-24T10:09:11.034Z,100556.16
2023-05-24T10:11:38.621Z,100555.28
2023-05-24T10:14:06.986Z,100554.06
2023-05-24T10:16:37.944Z,100549.06
2023-05-24T10:19:06.943Z,100555.03
2023-05-24T10:21:37.504Z,100565.63
2023-05-24T10:24:09.094Z,100556.66
2023-05-24T10:26:39.930Z,100567.22
2023-05-24T10:29:10.853Z,100565.63
2023-05-24T10:31:42.421Z,100559.41
2023-05-24T10:34:11.176Z,100560.81
2023-05-24T10:36:40.251Z,100558.13
2023-05-24T10:39:11.094Z,100563.09
2023-05-24T10:41:42.400Z,100558.25
2023-05-24T10:44:13.867Z,100561.34
2023-05-24T10:47:07.981Z,100558.91
2023-05-24T10:49:36.016Z,100551.50
2023-05-24T10:52:08.087Z,100555.97
2023-05-24T10:54:35.839Z,100559.31
2023-05-24T10:57:04.644Z,100556.94
2023-05-24T10:59:37.530Z,100560.47
2023-05-24T11:02:13.148Z,100561.78
2023-05-24T11:04:43.391Z,100559.00
2023-05-24T11:07:11.654Z,100557.03
2023-05-24T11:09:46.267Z,100562.44
2023-05-24T11:12:17.270Z,100556.31
2023-05-24T11:14:49.651Z,100556.22
2023-05-24T11:17:20.099Z,100558.56
2023-05-24T11:19:49.266Z,100557.75
2023-05-24T11:22:19.101Z,100548.53
2023-05-24T11:24:46.759Z,100557.97
2023-05-24T11:27:15.639Z,100548.19
2023-05-24T11:29:44.452Z,100548.16
2023-05-24T11:32:16.728Z,100551.59
2023-05-24T11:34:46.311Z,100546.88
2023-05-24T11:37:16.081Z,100542.50
2023-05-24T11:39:45.104Z,100545.66
2023-05-24T11:42:12.739Z,100556.25
2023-05-24T11:44:40.296Z,100557.56
2023-05-24T11:47:09.331Z,100546.34
2023-05-24T11:49:37.378Z,100551.53
2023-05-24T11:52:07.318Z,100552.31
2023-05-24T11:54:37.165Z,100556.56
2023-05-24T11:57:05.953Z,100553.16
2023-05-24T11:59:35.727Z,100547.28
2023-05-24T12:02:05.424Z,100548.09
2023-05-24T12:04:34.529Z,100556.06
2023-05-24T12:07:03.300Z,100555.66
2023-05-24T12:09:32.746Z,100559.28
2023-05-24T12:12:01.842Z,100556.59
2023-05-24T12:14:31.577Z,100552.38
2023-05-24T12:16:59.805Z,100554.75
2023-05-24T12:19:34.367Z,100555.94
2023-05-24T12:22:02.382Z,100555.78
2023-05-24T12:24:33.562Z,100553.56
2023-05-24T12:27:03.016Z,100550.66
2023-05-24T12:29:34.920Z,100549.53
2023-05-24T12:32:03.204Z,100553.91
2023-05-24T12:34:30.751Z,100549.88
2023-05-24T12:36:58.312Z,100557.25
2023-05-24T12:39:31.138Z,100542.38
2023-05-24T12:42:01.562Z,100548.19
2023-05-24T12:44:30.303Z,100551.09
2023-05-24T12:46:59.006Z,100550.44
2023-05-24T12:49:27.322Z,100550.94
2023-05-24T12:51:55.851Z,100551.31
2023-05-24T12:54:25.421Z,100548.75
2023-05-24T12:56:56.349Z,100552.13
2023-05-24T12:59:27.239Z,100546.59
2023-05-24T13:01:54.797Z,100546.81
2023-05-24T13:04:24.302Z,100545.56
2023-05-24T13:06:51.980Z,100549.41
2023-05-24T13:09:21.482Z,100551.13
2023-05-24T13:11:49.246Z,100552.44
2023-05-24T13:14:17.162Z,100552.78
2023-05-24T13:16:46.307Z,100555.59
2023-05-24T13:19:14.372Z,100558.16
2023-05-24T13:21:42.554Z,100553.56
2023-05-24T13:24:10.198Z,100555.22
2023-05-24T13:26:38.614Z,100553.88
2023-05-24T13:31:37.900Z,100552.94
2023-05-24T13:34:07.460Z,100549.75
2023-05-24T13:36:35.765Z,100544.34
2023-05-24T13:39:14.999Z,100546.00
2023-05-24T13:41:44.627Z,100547.59
2023-05-24T13:44:12.637Z,100542.31
2023-05-24T13:46:40.835Z,100545.97
2023-05-24T13:49:10.899Z,100542.28
2023-05-24T13:51:40.032Z,100540.63
2023-05-24T13:54:08.220Z,100537.31
2023-05-24T13:56:36.309Z,100534.78
2023-05-24T13:59:05.071Z,100534.69
2023-05-24T14:01:33.334Z,100536.91
2023-05-24T14:04:03.342Z,100532.94
2023-05-24T14:06:33.295Z,100541.34
2023-05-24T14:09:01.375Z,100531.78
2023-05-24T14:11:31.432Z,100523.31
2023-05-24T14:16:30.155Z,100534.19
2023-05-24T14:18:57.854Z,100531.38
2023-05-24T14:21:26.939Z,100528.69
2023-05-24T14:23:56.178Z,100539.38
2023-05-24T14:26:24.214Z,100531.28
2023-05-24T14:28:55.362Z,100536.28
2023-05-24T14:31:24.117Z,100528.22
2023-05-24T14:33:51.731Z,100531.56
2023-05-24T14:36:19.240Z,100524.06
2023-05-24T14:38:46.759Z,100521.16
2023-05-24T14:41:16.144Z,100525.81
2023-05-24T14:43:43.709Z,100529.25
2023-05-24T14:46:11.282Z,100516.09
2023-05-24T14:48:41.342Z,100526.25
2023-05-24T14:51:09.039Z,100520.28
2023-05-24T14:53:36.596Z,100526.13
2023-05-24T14:56:06.137Z,100529.25
2023-05-24T14:58:35.055Z,100525.59
2023-05-24T15:01:02.785Z,100533.41
2023-05-24T15:03:30.457Z,100525.25
2023-05-24T15:05:58.105Z,100530.31
2023-05-24T15:08:26.050Z,100534.59
2023-05-24T15:10:53.551Z,100526.28
2023-05-24T15:13:22.925Z,100528.06
2023-05-24T15:15:53.064Z,100525.78
2023-05-24T15:18:20.676Z,100526.16
2023-05-24T15:20:48.601Z,100522.72
2023-05-24T15:23:16.714Z,100524.41
2023-05-24T15:25:46.080Z,100525.91
2023-05-24T15:28:15.726Z,100519.25
2023-05-24T15:30:44.329Z,100523.06
2023-05-24T15:33:14.332Z,100515.72
2023-05-24T15:35:42.115Z,100510.06
2023-05-24T15:38:09.682Z,100512.84
2023-05-24T15:40:38.375Z,100518.47
2023-05-24T15:43:05.891Z,100508.75
2023-05-24T15:45:33.643Z,100513.63
2023-05-24T15:48:04.435Z,100509.41
2023-05-24T15:50:51.854Z,100504.88
2023-05-24T15:53:21.805Z,100506.13
2023-05-24T15:55:49.604Z,100502.03
2023-05-24T15:58:17.211Z,100497.19
2023-05-24T16:00:45.210Z,100501.63
2023-05-24T16:03:15.381Z,100510.81
2023-05-24T16:05:44.675Z,100504.75
2023-05-24T16:08:13.096Z,100501.34
2023-05-24T16:10:40.754Z,100503.47
2023-05-24T16:13:08.348Z,100509.94
2023-05-24T16:15:36.953Z,100515.63
2023-05-24T16:18:05.083Z,100517.19
2023-05-24T16:20:32.728Z,100518.94
2023-05-24T16:23:03.010Z,100502.78
2023-05-24T16:25:30.506Z,100511.81
2023-05-24T16:27:58.024Z,100514.28
2023-05-24T16:30:25.551Z,100522.72
2023-05-24T16:32:53.069Z,100521.91
2023-05-24T16:35:20.963Z,100520.16
2023-05-24T16:37:49.768Z,100515.31
2023-05-24T16:40:18.662Z,100519.19
2023-05-24T16:42:46.321Z,100514.38
2023-05-24T16:45:13.826Z,100517.63
2023-05-24T16:47:41.724Z,100513.31
2023-05-24T16:50:14.724Z,100509.69
2023-05-24T16:52:42.289Z,100500.69
2023-05-24T16:55:10.558Z,100507.47
2023-05-24T16:57:39.599Z,100501.72
2023-05-24T17:00:08.617Z,100486.00
2023-05-24T17:02:36.182Z,100490.66
2023-05-24T17:05:03.696Z,100492.94
2023-05-24T17:07:31.822Z,100491.97
2023-05-24T17:09:59.300Z,100489.31
2023-05-24T17:12:26.772Z,100490.16
2023-05-24T17:14:55.565Z,100492.47
2023-05-24T17:17:23.061Z,100487.06
2023-05-24T17:19:50.695Z,100493.91
2023-05-24T17:22:18.212Z,100489.59
2023-05-24T17:24:45.693Z,100491.44
2023-05-24T17:27:13.156Z,100499.03
2023-05-24T17:29:40.886Z,100494.84
2023-05-24T17:32:09.828Z,100488.81
2023-05-24T17:34:37.416Z,100480.00
2023-05-24T17:37:05.322Z,100486.34
2023-05-24T17:39:32.802Z,100482.88
2023-05-24T17:42:00.946Z,100492.88
2023-05-24T17:44:28.447Z,100489.34
2023-05-24T17:46:57.519Z,100490.75
2023-05-24T17:49:26.401Z,100496.69
2023-05-24T17:51:53.915Z,100496.72
2023-05-24T17:54:22.413Z,100496.72
2023-05-24T17:56:49.932Z,100499.78
2023-05-24T17:59:17.445Z,100496.38
2023-05-24T18:01:46.837Z,100498.91
2023-05-24T18:04:14.490Z,100498.38
2023-05-24T18:06:43.347Z,100502.09
2023-05-24T18:09:11.252Z,100500.00
2023-05-24T18:11:38.756Z,100502.34
2023-05-24T18:14:06.295Z,100508.09
2023-05-24T18:16:34.143Z,100506.47
2023-05-24T18:19:01.672Z,100509.44
2023-05-24T18:21:29.216Z,100508.38
2023-05-24T18:23:58.072Z,100509.25
2023-05-24T18:26:25.605Z,100512.44
2023-05-24T18:28:53.104Z,100515.19
2023-05-24T18:31:21.812Z,100520.44
2023-05-24T18:33:49.492Z,100523.84
2023-05-24T18:36:17.216Z,100514.97
2023-05-24T18:38:47.141Z,100522.06
2023-05-24T18:41:16.520Z,100527.97
2023-05-24T18:43:44.056Z,100526.03
2023-05-24T18:46:13.703Z,100519.72
2023-05-24T18:48:41.526Z,100533.09
2023-05-24T18:51:09.166Z,100524.03
2023-05-24T18:53:36.714Z,100525.41
2023-05-24T18:56:04.255Z,100524.19
2023-05-24T18:58:33.076Z,100532.25
2023-05-24T19:01:00.636Z,100531.25
2023-05-24T19:03:28.378Z,100538.84
2023-05-24T19:05:55.993Z,100542.28
2023-05-24T19:08:23.522Z,100547.31
2023-05-24T19:10:51.019Z,100553.19
2023-05-24T19:13:18.531Z,100550.78
2023-05-24T19:15:47.382Z,100558.84
2023-05-24T19:18:15.005Z,100556.84
2023-05-24T19:20:43.101Z,100551.81
2023-05-24T19:23:10.703Z,100563.97
2023-05-24T19:25:41.901Z,100556.88
2023-05-24T19:28:09.665Z,100560.13
2023-05-24T19:30:37.720Z,100572.88
2023-05-24T19:33:07.306Z,100572.38
2023-05-24T19:35:36.406Z,100575.47
2023-05-24T19:38:03.981Z,100567.56
2023-05-24T19:40:31.502Z,100572.16
2023-05-24T19:42:59.003Z,100568.84
2023-05-24T19:45:26.611Z,100565.59
2023-05-24T19:47:54.206Z,100567.59
2023-05-24T19:50:23.157Z,100570.25
2023-05-24T19:52:50.684Z,100575.75
2023-05-24T19:55:18.199Z,100576.00
2023-05-24T19:57:45.702Z,100575.63
2023-05-24T20:00:13.948Z,100581.34
2023-05-24T20:02:41.584Z,100591.31
2023-05-24T20:05:09.959Z,100591.06
2023-05-24T20:07:38.818Z,100599.56
2023-05-24T20:10:07.685Z,100595.19
2023-05-24T20:12:35.190Z,100596.66
2023-05-24T20:15:02.756Z,100606.44
2023-05-24T20:17:30.458Z,100599.97
2023-05-24T20:19:58.036Z,100594.75
2023-05-24T20:22:25.561Z,100605.56
2023-05-24T20:24:54.396Z,100607.72
2023-05-24T20:27:22.018Z,100609.47
2023-05-24T20:29:49.475Z,100595.50
2023-05-24T20:32:17.247Z,100605.47
2023-05-24T20:34:44.795Z,100609.97
2023-05-24T20:37:12.380Z,100612.28
2023-05-24T20:39:39.849Z,100610.75
2023-05-24T20:42:08.884Z,100613.66
2023-05-24T20:44:36.399Z,100617.78
2023-05-24T20:47:03.945Z,100610.25
2023-05-24T20:49:31.421Z,100616.41
2023-05-24T20:51:59.036Z,100617.00
2023-05-24T20:54:26.644Z,100621.69
2023-05-24T20:56:54.153Z,100628.28
2023-05-24T20:59:23.023Z,100628.88
2023-05-24T21:01:50.617Z,100630.03
2023-05-24T21:04:19.335Z,100634.56
2023-05-24T21:06:46.829Z,100635.16
2023-05-24T21:09:14.419Z,100636.22
2023-05-24T21:11:44.053Z,100629.19
2023-05-24T21:14:11.586Z,100636.31
2023-05-24T21:16:40.473Z,100633.88
2023-05-24T21:19:08.012Z,100636.97
2023-05-24T21:21:35.972Z,100635.69
2023-05-24T21:24:03.530Z,100636.06
2023-05-24T21:26:31.058Z,100638.56
2023-05-24T21:28:58.845Z,100642.13
2023-05-24T21:31:29.073Z,100639.88
2023-05-24T21:33:58.786Z,100640.44
2023-05-24T21:36:26.588Z,100642.22
2023-05-24T21:38:54.097Z,100639.03
2023-05-24T21:41:22.244Z,100641.53
2023-05-24T21:43:49.883Z,100636.13
2023-05-24T21:46:17.442Z,100653.81
2023-05-24T21:48:44.930Z,100648.84
2023-05-24T21:51:15.507Z,100654.16
2023-05-24T21:53:43.012Z,100659.69
2023-05-24T21:56:10.712Z,100657.41
2023-05-24T21:58:38.461Z,100658.81
2023-05-24T22:01:06.120Z,100664.09
2023-05-24T22:03:33.670Z,100664.81
2023-05-24T22:06:01.262Z,100652.72
2023-05-24T22:08:31.171Z,100651.16
2023-05-24T22:10:58.924Z,100663.13
2023-05-24T22:13:27.049Z,100655.84
2023-05-24T22:15:54.593Z,100660.06
2023-05-24T22:18:22.108Z,100663.00
2023-05-24T22:20:51.058Z,100664.25
2023-05-24T22:23:18.618Z,100671.72
2023-05-24T22:25:47.759Z,100681.38
2023-05-24T22:28:15.221Z,100676.13
2023-05-24T22:30:42.752Z,100672.53
2023-05-24T22:33:10.366Z,100671.47
2023-05-24T22:35:37.871Z,100679.88
2023-05-24T22:38:05.505Z,100674.50
2023-05-24T22:40:33.124Z,100673.66
2023-05-24T22:43:03.378Z,100670.66
2023-05-24T22:45:30.907Z,100668.56
2023-05-24T22:47:59.025Z,100667.22
2023-05-24T22:50:26.991Z,100666.88
2023-05-24T22:52:56.521Z,100669.31
2023-05-24T22:55:24.603Z,100675.06
2023-05-24T22:57:52.091Z,100673.47
2023-05-24T23:00:21.742Z,100674.34
2023-05-24T23:02:49.293Z,100665.53
2023-05-24T23:05:17.184Z,100672.09
2023-05-24T23:07:45.893Z,100668.03
2023-05-24T23:10:13.432Z,100672.31
2023-05-24T23:12:42.088Z,100684.28
2023-05-24T23:15:11.410Z,100682.78
2023-05-24T23:17:40.330Z,100677.84
2023-05-24T23:20:10.871Z,100679.94
2023-05-24T23:22:38.835Z,100680.63
2023-05-24T23:25:07.881Z,100679.66
2023-05-24T23:27:35.441Z,100685.16
2023-05-24T23:30:02.964Z,100678.41
2023-05-24T23:32:30.511Z,100682.66
2023-05-24T23:34:59.362Z,100682.22
2023-05-24T23:37:26.917Z,100689.66
2023-05-24T23:39:54.377Z,100676.31
2023-05-24T23:42:21.860Z,100677.66
2023-05-24T23:44:49.334Z,100688.81
2023-05-24T23:47:16.835Z,100693.41
2023-05-24T23:49:44.310Z,100688.13
2023-05-24T23:52:13.196Z,100688.94
2023-05-24T23:54:40.787Z,100694.00
2023-05-24T23:57:08.426Z,100686.91
2023-05-24T23:59:36.321Z,100696.66
